Flight Track Log - Related Links

Times and Time Zones

All times are in EDT time to prevent confusion due to time zone crossing. See the N775NC flight status page for this flight to view local times or setup timezone preferences in your user account.


Time Position Orientation Groundspeed Altitude Reporting Facility
EDT Latitude Longitude Course Direction KTS MPH feet Rate Location/Type
Fri 03:04:05 PM 40.8844 -81.4783 174° South 194 223 2,900  Level Indianapolis Center
Fri 03:05:07 PM 40.8319 -81.5203 211° Southwest 214 246 4,500 1,790 Climbing Indianapolis Center
Fri 03:06:09 PM 40.7583 -81.5122 175° South 250 288 6,600 1,984 Climbing Indianapolis Center
Fri 03:07:00 PM 40.5213 -81.6218 176° South  Level Estimated
Fri 03:07:11 PM 40.6686 -81.4869 168° South 276 318 8,600  Level Indianapolis Center
Fri 03:08:00 PM 40.4207 -81.5873 165° South  Level FlightAware Approximate
Fri 03:08:13 PM 40.5869 -81.4836 178° South 289 333 10,500  Level Indianapolis Center
Fri 03:09:00 PM 40.3225 -81.6326 174° South  Level Estimated
Fri 03:09:15 PM 40.4917 -81.4786 178° South 336 387 12,400  Level Indianapolis Center
Fri 03:10:17 PM 40.3931 -81.4747 178° South 349 402 14,800 1,935 Climbing Indianapolis Center
Fri 03:11:19 PM 40.2906 -81.4744 180° South 362 417 16,400 1,306 Climbing Indianapolis Center
Fri 03:12:21 PM 40.1764 -81.4697 178° South 405 466 17,500 871 Climbing Indianapolis Center
Fri 03:13:23 PM 40.0564 -81.4517 173° South 427 491 18,200 1,161 Climbing Indianapolis Center
Fri 03:14:25 PM 39.9125 -81.4347 175° South 449 517 19,900 1,452 Climbing Indianapolis Center
Fri 03:15:27 PM 39.7847 -81.4183 174° South 460 529 21,200 1,258 Climbing Indianapolis Center
Fri 03:16:29 PM 39.6528 -81.4003 174° South 470 541 22,500 1,210 Climbing Indianapolis Center
Fri 03:17:31 PM 39.5181 -81.3803 173° South 482 555 23,700 1,152 Climbing Indianapolis Center
Fri 03:18:34 PM 39.3811 -81.3589 173° South 489 563 24,900 1,008 Climbing Indianapolis Center
Fri 03:19:36 PM 39.2442 -81.3739 185° South 491 565 25,800 1,452 Climbing Indianapolis Center
Fri 03:20:38 PM 39.0836 -81.4039 188° South 484 557 27,900 1,742 Climbing Indianapolis Center
Fri 03:21:40 PM 38.9542 -81.4361 191° South 472 543 29,400 1,113 Climbing Indianapolis Center
Fri 03:22:42 PM 38.8269 -81.4739 193° South 467 537 30,200 1,113 Climbing Indianapolis Center
Fri 03:23:44 PM 38.7019 -81.5211 196° South 462 532 31,700 1,355 Climbing Indianapolis Center
Fri 03:24:46 PM 38.5933 -81.5881 206° Southwest 440 506 33,000 968 Climbing Indianapolis Center
Fri 03:25:48 PM 38.4781 -81.6647 208° Southwest 428 493 33,700 484 Climbing Indianapolis Center
Fri 03:26:50 PM 38.3714 -81.7328 207° Southwest 426 490 34,000 145 Climbing Indianapolis Center
Fri 03:27:52 PM 38.2558 -81.7931 202° Southwest 446 513 34,000  Level Indianapolis Center
Fri 03:28:54 PM 38.1372 -81.8467 200° South 451 519 34,000  Level Indianapolis Center
Fri 03:29:56 PM 38.0169 -81.8981 199° South 454 522 34,000  Level Indianapolis Center
Fri 03:30:58 PM 37.8711 -81.9567 198° South 456 525 34,000  Level Indianapolis Center
Fri 03:32:00 PM 37.7392 -81.9903 191° South 465 535 34,000  Level Indianapolis Center
Fri 03:33:02 PM 37.6114 -82.0233 192° South 467 537 34,000  Level Indianapolis Center
Fri 03:34:04 PM 37.4881 -82.0697 197° South 462 532 34,000  Level Indianapolis Center
Fri 03:35:06 PM 37.3647 -82.1156 196° South 461 531 34,000  Level Indianapolis Center
Fri 03:36:09 PM 37.2417 -82.1608 196° South 460 529 34,000  Level Indianapolis Center
Fri 03:37:11 PM 37.1256 -82.2194 202° Southwest 453 521 34,000  Level Indianapolis Center
Fri 03:38:13 PM 36.9975 -82.2989 206° Southwest 440 506 34,000  Level Indianapolis Center
Fri 03:39:15 PM 36.8911 -82.3692 208° Southwest 431 496 34,000  Level Indianapolis Center
Fri 03:40:17 PM 36.7850 -82.4383 208° Southwest 426 490 34,000  Level Indianapolis Center
Fri 03:41:19 PM 36.6811 -82.5078 208° Southwest 421 484 34,000  Level Indianapolis Center
Fri 03:42:21 PM 36.5769 -82.5769 208° Southwest 419 482 34,000  Level Indianapolis Center
Fri 03:43:23 PM 36.4731 -82.6478 209° Southwest 423 487 34,000  Level Indianapolis Center
Fri 03:44:20 PM 36.3619 -82.7239 209° Southwest 423 487 34,000  Level Atlanta Center
Fri 03:45:20 PM 36.2542 -82.7900 206° Southwest 423 487 34,000  Level Atlanta Center
Fri 03:46:20 PM 36.1483 -82.8508 205° Southwest 429 494 34,000  Level Atlanta Center
Fri 03:47:20 PM 36.0406 -82.9139 205° Southwest 424 488 34,000  Level Atlanta Center
Fri 03:48:20 PM 35.9328 -82.9769 205° Southwest 424 488 34,000  Level Atlanta Center
Fri 03:49:20 PM 35.8183 -83.0322 201° Southwest 429 494 34,000  Level Atlanta Center
Fri 03:50:20 PM 35.7019 -83.0669 194° South 434 499 34,000 -300 Level Atlanta Center
Fri 03:51:20 PM 35.5747 -83.0839 186° South 454 522 33,400 -850 Descending Atlanta Center
Fri 03:52:20 PM 35.4497 -83.0981 185° South 459 528 32,300 -950 Descending Atlanta Center
Fri 03:53:20 PM 35.3539 -83.1194 190° South 459 528 31,500 -1,000 Descending Atlanta Center
Fri 03:54:20 PM 35.2061 -83.1542 191° South 454 522 30,300 -950 Descending Atlanta Center
Fri 03:55:20 PM 35.0956 -83.1883 194° South 449 517 29,600 -850 Descending Atlanta Center
Fri 03:56:20 PM 34.9728 -83.2150 190° South 449 517 28,600 -1,000 Descending Atlanta Center
Fri 03:57:20 PM 34.8497 -83.2467 192° South 449 517 27,600 -1,000 Descending Atlanta Center
Fri 03:58:20 PM 34.7311 -83.2881 196° South 449 517 26,600 -1,400 Descending Atlanta Center
Fri 03:59:20 PM 34.6064 -83.3550 204° Southwest 449 517 24,800 -2,400 Descending Atlanta Center
Fri 04:00:20 PM 34.5067 -83.4339 213° Southwest 433 498 21,800 -3,000 Descending Atlanta Center
Fri 04:01:20 PM 34.4214 -83.5200 220° Southwest 412 474 18,800 -2,800 Descending Atlanta Center
Fri 04:02:20 PM 34.3403 -83.6036 220° Southwest 394 453 16,200 -2,750 Descending Atlanta Center
Fri 04:03:20 PM 34.2633 -83.6869 222° Southwest 389 448 13,300 -2,000 Descending Atlanta Center
Fri 04:04:20 PM 34.1822 -83.7625 218° Southwest 383 441 12,200 -650 Descending Atlanta Center
Fri 04:05:20 PM 34.1072 -83.8356 219° Southwest 369 425 12,000 -50 Descending Atlanta Center
Fri 04:06:20 PM 34.0531 -83.8933 221° Southwest 327 376 12,100 -250 Climbing Atlanta Center
Fri 04:07:20 PM 33.9883 -83.9561 219° Southwest 307 353 11,500 -1,250 Descending Atlanta Center
Fri 04:08:20 PM 33.9342 -84.0239 226° Southwest 297 342 9,600 -1,750 Descending Atlanta Center
Fri 04:09:20 PM 33.8839 -84.0989 231° Southwest 291 335 8,000 -1,450 Descending Atlanta Center
Fri 04:10:20 PM 33.8108 -84.1214 194° South 264 304 6,700 -1,150 Descending Atlanta Center
Fri 04:11:20 PM 33.7336 -84.1611 203° Southwest 270 311 5,700 -1,074 Descending Atlanta Center
Fri 04:11:55 PM 33.7000 -84.1833 209° Southwest 270 311 5,000 -1,011 Descending Atlanta TRACON
Fri 04:12:49 PM 33.6667 -84.2333 231° Southwest 216 249 4,200 -1,000 Descending Atlanta TRACON
Fri 04:13:49 PM 33.6500 -84.2833 248° West 174 200 3,100 -1,048 Descending Atlanta TRACON
Fri 04:14:55 PM 33.6500 -84.3500 270° West 140 161 2,000 -810 Descending Atlanta TRACON
Fri 04:15:55 PM 33.6500 -84.3833 270° West 150 173 1,400 -600 Descending Atlanta TRACON

Login

Don't have an account? Register now (free) for customized features, flight alerts, and more!